This is the latest recevied weather packets stored in our database for station/object W4MSI. If no packets are shown the sender has not sent any weather packets the latest 10 day(s).
| Time | Temp. | Humidity | Pressure | Rain* | Wind** | Luminosity | Snow |
|---|---|---|---|---|---|---|---|
| 1778235312 | 7.78° C | 73% | 1015.2 hPa | 0 mm | - | 0 W/m² | - |
| 1778235009 | 7.78° C | 74% | 1015.5 hPa | 0 mm | - | 0 W/m² | - |
| 1778234707 | 7.78° C | 72% | 1015.5 hPa | 0 mm | - | 0 W/m² | - |
| 1778234403 | 8.33° C | 71% | 1015.2 hPa | 0 mm | - | 0 W/m² | - |
| 1778234101 | 7.78° C | 72% | 1015.2 hPa | 0 mm | - | 0 W/m² | - |
| 1778233797 | 7.78° C | 72% | 1015.1 hPa | 0 mm | - | 0 W/m² | - |
| 1778233494 | 7.78° C | 74% | 1015.2 hPa | 0 mm | - | 0 W/m² | - |
| 1778233191 | 7.78° C | 74% | 1015.2 hPa | 0 mm | - | 0 W/m² | - |
| 1778232888 | 6.67° C | 81% | 1015.1 hPa | 0 mm | - | 0 W/m² | - |
| 1778232586 | 6.67° C | 85% | 1015.2 hPa | 0 mm | - | 0 W/m² | - |
| 1778232283 | 6.11° C | 90% | 1015.2 hPa | 0 mm | - | 0 W/m² | - |
| 1778231982 | 6.11° C | 91% | 1015.2 hPa | 0 mm | - | 0 W/m² | - |
| 1778231678 | 6.11° C | 90% | 1015.1 hPa | 0 mm | - | 0 W/m² | - |
| 1778231375 | 5.56° C | 88% | 1015.1 hPa | 0 mm | - | 0 W/m² | - |
| 1778231074 | 6.11° C | 86% | 1015.1 hPa | 0 mm | - | 0 W/m² | - |
| 1778230769 | 6.11° C | 86% | 1015.2 hPa | 0 mm | - | 0 W/m² | - |
| 1778230467 | 6.11° C | 87% | 1015 hPa | 0 mm | - | 0 W/m² | - |
| 1778230163 | 6.11° C | 90% | 1015.2 hPa | 0 mm | - | 0 W/m² | - |
| 1778229860 | 6.11° C | 90% | 1015.3 hPa | 0 mm | - | 0 W/m² | - |
| 1778229558 | 6.11° C | 91% | 1015.5 hPa | 0 mm | - | 0 W/m² | - |
| 1778229255 | 6.11° C | 91% | 1015.2 hPa | 0 mm | - | 0 W/m² | - |
| 1778228954 | 6.11° C | 91% | 1015.4 hPa | 0 mm | - | 0 W/m² | - |
| 1778228652 | 6.11° C | 91% | 1015.5 hPa | 0 mm | - | 0 W/m² | - |
| 1778228350 | 6.67° C | 90% | 1015.5 hPa | 0 mm | - | 0 W/m² | - |
| 1778228047 | 6.67° C | 89% | 1015.6 hPa | 0 mm | - | 0 W/m² | - |
* Rain latest hour (hover to see other rain measurements)
** Current wind speed in m/s (hover to see current wind gust speed)